プーケット の空港の天気 - METARとTAF

プーケット国際空港 ( VTSP / HKT ) - タイ プーケット県
飛行場実況気象(Metar)
観測時間01/21 20:00 ICT (01/21 13:00 UTC)
風向・風速西北西 3m/s
視程8000m
天気現象
少しの雲 雲底高度 610m
気温28℃
湿度70%
気圧1013hPa
METARVTSP 211300Z 29006KT 260V330 8000 FEW020 28/22 Q1013 NOSIG
過去の天気等 Google飛行場航空写真 Wunderground天気予報

過去48時間のMETAR

飛行場予報(TAF)
発表時間: 1/21 18:00 ICT (1/21 11:00 UTC)
予報対象時間: 21日19時 ICT ~ 23日1時 ICT
風向・風速西北西 4m/s
視程8000m
少しの雲 雲底高度 610m
21日19時 ICT ~ 21日23時 ICT に一時的に
風向・風速不定 5m/s 瞬間風速 10m/s
視程5000m
天気現象雷雨
少しの積乱雲 雲底高度 550m
全天の4割程度の雲 雲底高度 610m
全天の8割程度の雲 雲底高度 3050m
22日23時 ICT ~ 23日1時 ICT に徐々に
風向・風速静穏
22日7時 ICT ~ 22日9時 ICT に徐々に
風向・風速東 4m/s
視程10km以上
TAF VTSP 211100Z 2112/2218 30008KT 8000 FEW020
TEMPO 2112/2116 VRB10G20KT 5000 TSRA FEW018CB SCT020 BKN100
BECMG 2216/2218 00000KT
BECMG 2200/2202 10008KT 9999